sensor_id;sensor_type;location;lat;lon;timestamp;pressure;altitude;pressure_sealevel;temperature
68510;BMP180;55512;50.102;19.958;2023-02-28T00:00:23;99821.20;;;0.70
68510;BMP180;55512;50.102;19.958;2023-02-28T00:02:49;99826.40;;;0.70
68510;BMP180;55512;50.102;19.958;2023-02-28T00:05:21;99830.00;;;0.70
68510;BMP180;55512;50.102;19.958;2023-02-28T00:07:48;99831.80;;;0.70
68510;BMP180;55512;50.102;19.958;2023-02-28T00:10:19;99832.60;;;0.72
68510;BMP180;55512;50.102;19.958;2023-02-28T00:12:47;99834.80;;;0.72
68510;BMP180;55512;50.102;19.958;2023-02-28T00:15:13;99834.00;;;0.70
68510;BMP180;55512;50.102;19.958;2023-02-28T00:17:39;99835.40;;;0.70
68510;BMP180;55512;50.102;19.958;2023-02-28T00:20:06;99837.60;;;0.72
68510;BMP180;55512;50.102;19.958;2023-02-28T00:25:18;99840.20;;;0.70
68510;BMP180;55512;50.102;19.958;2023-02-28T00:27:44;99838.60;;;0.70
68510;BMP180;55512;50.102;19.958;2023-02-28T00:30:15;99838.80;;;0.70
68510;BMP180;55512;50.102;19.958;2023-02-28T00:32:41;99840.40;;;0.70
68510;BMP180;55512;50.102;19.958;2023-02-28T00:35:08;99836.00;;;0.70
68510;BMP180;55512;50.102;19.958;2023-02-28T00:37:34;99839.00;;;0.68
68510;BMP180;55512;50.102;19.958;2023-02-28T00:39:59;99842.60;;;0.62
68510;BMP180;55512;50.102;19.958;2023-02-28T00:42:25;99840.80;;;0.60
68510;BMP180;55512;50.102;19.958;2023-02-28T00:44:51;99836.80;;;0.60
68510;BMP180;55512;50.102;19.958;2023-02-28T00:47:16;99835.00;;;0.60
68510;BMP180;55512;50.102;19.958;2023-02-28T00:49:42;99833.80;;;0.60
68510;BMP180;55512;50.102;19.958;2023-02-28T00:52:08;99829.60;;;0.60
68510;BMP180;55512;50.102;19.958;2023-02-28T00:54:34;99835.20;;;0.50
68510;BMP180;55512;50.102;19.958;2023-02-28T00:56:59;99832.80;;;0.50
68510;BMP180;55512;50.102;19.958;2023-02-28T00:59:25;99839.60;;;0.50
68510;BMP180;55512;50.102;19.958;2023-02-28T01:01:50;99837.40;;;0.50
68510;BMP180;55512;50.102;19.958;2023-02-28T01:04:16;99841.20;;;0.40
68510;BMP180;55512;50.102;19.958;2023-02-28T01:06:41;99832.80;;;0.40
68510;BMP180;55512;50.102;19.958;2023-02-28T01:09:08;99830.00;;;0.30
68510;BMP180;55512;50.102;19.958;2023-02-28T01:11:34;99829.40;;;0.24
68510;BMP180;55512;50.102;19.958;2023-02-28T01:14:01;99830.80;;;0.20
68510;BMP180;55512;50.102;19.958;2023-02-28T01:16:28;99834.40;;;0.18
68510;BMP180;55512;50.102;19.958;2023-02-28T01:18:54;99832.00;;;0.16
68510;BMP180;55512;50.102;19.958;2023-02-28T01:21:21;99830.00;;;0.10
68510;BMP180;55512;50.102;19.958;2023-02-28T01:23:48;99827.60;;;0.10
68510;BMP180;55512;50.102;19.958;2023-02-28T01:26:20;99827.80;;;0.02
68510;BMP180;55512;50.102;19.958;2023-02-28T01:28:46;99830.20;;;0.00
68510;BMP180;55512;50.102;19.958;2023-02-28T01:31:12;99830.20;;;-0.04
68510;BMP180;55512;50.102;19.958;2023-02-28T01:33:39;99834.00;;;-0.10
68510;BMP180;55512;50.102;19.958;2023-02-28T01:36:14;99834.40;;;-0.10
68510;BMP180;55512;50.102;19.958;2023-02-28T01:38:40;99831.80;;;-0.10
68510;BMP180;55512;50.102;19.958;2023-02-28T01:41:07;99828.00;;;-0.12
68510;BMP180;55512;50.102;19.958;2023-02-28T01:44:53;99831.40;;;-0.20
68510;BMP180;55512;50.102;19.958;2023-02-28T01:46:49;99835.00;;;-0.20
68510;BMP180;55512;50.102;19.958;2023-02-28T01:49:17;99841.60;;;-0.20
68510;BMP180;55512;50.102;19.958;2023-02-28T01:51:54;99839.80;;;-0.20
68510;BMP180;55512;50.102;19.958;2023-02-28T01:54:40;99841.80;;;-0.20
68510;BMP180;55512;50.102;19.958;2023-02-28T01:57:17;99838.00;;;-0.20
68510;BMP180;55512;50.102;19.958;2023-02-28T01:59:54;99838.40;;;-0.20
68510;BMP180;55512;50.102;19.958;2023-02-28T02:02:22;99840.40;;;-0.20
68510;BMP180;55512;50.102;19.958;2023-02-28T02:04:58;99839.60;;;-0.20
68510;BMP180;55512;50.102;19.958;2023-02-28T02:07:32;99836.00;;;-0.20
68510;BMP180;55512;50.102;19.958;2023-02-28T02:15:45;99824.20;;;-0.20
68510;BMP180;55512;50.102;19.958;2023-02-28T02:32:47;99815.80;;;-0.50
68510;BMP180;55512;50.102;19.958;2023-02-28T02:38:38;99808.20;;;-0.60
68510;BMP180;55512;50.102;19.958;2023-02-28T02:41:17;99805.20;;;-0.60
68510;BMP180;55512;50.102;19.958;2023-02-28T02:44:24;99803.20;;;-0.66
68510;BMP180;55512;50.102;19.958;2023-02-28T02:46:45;99801.00;;;-0.70
68510;BMP180;55512;50.102;19.958;2023-02-28T02:49:27;99802.80;;;-0.70
68510;BMP180;55512;50.102;19.958;2023-02-28T02:51:56;99801.60;;;-0.72
68510;BMP180;55512;50.102;19.958;2023-02-28T02:54:28;99803.40;;;-0.78
68510;BMP180;55512;50.102;19.958;2023-02-28T02:56:59;99803.60;;;-0.80
68510;BMP180;55512;50.102;19.958;2023-02-28T02:59:28;99794.80;;;-0.80
68510;BMP180;55512;50.102;19.958;2023-02-28T03:02:00;99793.80;;;-0.90
68510;BMP180;55512;50.102;19.958;2023-02-28T03:04:38;99797.40;;;-0.90
68510;BMP180;55512;50.102;19.958;2023-02-28T03:07:05;99794.20;;;-0.92
68510;BMP180;55512;50.102;19.958;2023-02-28T03:09:33;99790.20;;;-1.00
68510;BMP180;55512;50.102;19.958;2023-02-28T03:12:02;99787.80;;;-1.00
68510;BMP180;55512;50.102;19.958;2023-02-28T03:20:07;99794.00;;;-1.10
68510;BMP180;55512;50.102;19.958;2023-02-28T03:23:23;99796.60;;;-1.10
68510;BMP180;55512;50.102;19.958;2023-02-28T03:25:59;99798.00;;;-1.20
68510;BMP180;55512;50.102;19.958;2023-02-28T03:31:43;99800.80;;;-1.20
68510;BMP180;55512;50.102;19.958;2023-02-28T03:34:32;99799.80;;;-1.30
68510;BMP180;55512;50.102;19.958;2023-02-28T03:37:11;99801.00;;;-1.30
68510;BMP180;55512;50.102;19.958;2023-02-28T03:39:45;99801.80;;;-1.30
68510;BMP180;55512;50.102;19.958;2023-02-28T03:42:20;99804.60;;;-1.30
68510;BMP180;55512;50.102;19.958;2023-02-28T03:45:01;99808.60;;;-1.38
68510;BMP180;55512;50.102;19.958;2023-02-28T03:50:35;99817.80;;;-1.40
68510;BMP180;55512;50.102;19.958;2023-02-28T03:56:30;99819.20;;;-1.50
68510;BMP180;55512;50.102;19.958;2023-02-28T04:01:46;99818.40;;;-1.56
68510;BMP180;55512;50.102;19.958;2023-02-28T04:04:14;99815.80;;;-1.60
68510;BMP180;55512;50.102;19.958;2023-02-28T04:06:40;99819.40;;;-1.60
68510;BMP180;55512;50.102;19.958;2023-02-28T04:09:09;99816.60;;;-1.60
68510;BMP180;55512;50.102;19.958;2023-02-28T04:14:05;99824.80;;;-1.64
68510;BMP180;55512;50.102;19.958;2023-02-28T04:16:33;99822.00;;;-1.70
68510;BMP180;55512;50.102;19.958;2023-02-28T04:18:59;99822.60;;;-1.70
68510;BMP180;55512;50.102;19.958;2023-02-28T04:21:40;99824.40;;;-1.70
68510;BMP180;55512;50.102;19.958;2023-02-28T04:24:09;99829.20;;;-1.70
68510;BMP180;55512;50.102;19.958;2023-02-28T04:26:41;99831.40;;;-1.70
68510;BMP180;55512;50.102;19.958;2023-02-28T04:29:11;99831.00;;;-1.70
68510;BMP180;55512;50.102;19.958;2023-02-28T04:31:37;99835.00;;;-1.70
68510;BMP180;55512;50.102;19.958;2023-02-28T04:34:03;99831.40;;;-1.74
68510;BMP180;55512;50.102;19.958;2023-02-28T04:36:28;99836.40;;;-1.80
68510;BMP180;55512;50.102;19.958;2023-02-28T04:38:54;99836.80;;;-1.80
68510;BMP180;55512;50.102;19.958;2023-02-28T04:41:22;99837.20;;;-1.80
68510;BMP180;55512;50.102;19.958;2023-02-28T04:43:48;99838.80;;;-1.80
68510;BMP180;55512;50.102;19.958;2023-02-28T04:46:14;99842.60;;;-1.80
68510;BMP180;55512;50.102;19.958;2023-02-28T04:48:41;99836.60;;;-1.82
68510;BMP180;55512;50.102;19.958;2023-02-28T04:51:12;99843.00;;;-1.88
68510;BMP180;55512;50.102;19.958;2023-02-28T04:53:40;99842.60;;;-1.90
68510;BMP180;55512;50.102;19.958;2023-02-28T04:56:07;99843.20;;;-1.90
68510;BMP180;55512;50.102;19.958;2023-02-28T04:58:34;99846.80;;;-1.90
68510;BMP180;55512;50.102;19.958;2023-02-28T05:01:23;99843.20;;;-1.90
68510;BMP180;55512;50.102;19.958;2023-02-28T05:03:51;99851.60;;;-1.90
68510;BMP180;55512;50.102;19.958;2023-02-28T05:06:18;99853.00;;;-1.90
68510;BMP180;55512;50.102;19.958;2023-02-28T05:08:46;99851.40;;;-1.90
68510;BMP180;55512;50.102;19.958;2023-02-28T05:11:23;99853.20;;;-1.92
68510;BMP180;55512;50.102;19.958;2023-02-28T05:13:50;99859.00;;;-1.96
68510;BMP180;55512;50.102;19.958;2023-02-28T05:16:17;99862.20;;;-2.00
68510;BMP180;55512;50.102;19.958;2023-02-28T05:18:43;99860.80;;;-2.00
68510;BMP180;55512;50.102;19.958;2023-02-28T05:21:29;99860.80;;;-2.00
68510;BMP180;55512;50.102;19.958;2023-02-28T05:24:00;99855.80;;;-2.02
68510;BMP180;55512;50.102;19.958;2023-02-28T05:26:27;99857.80;;;-2.02
68510;BMP180;55512;50.102;19.958;2023-02-28T05:28:54;99859.80;;;-2.08
68510;BMP180;55512;50.102;19.958;2023-02-28T05:31:21;99862.80;;;-2.08
68510;BMP180;55512;50.102;19.958;2023-02-28T05:33:47;99865.60;;;-2.04
68510;BMP180;55512;50.102;19.958;2023-02-28T05:36:13;99872.20;;;-2.02
68510;BMP180;55512;50.102;19.958;2023-02-28T05:38:39;99873.80;;;-2.02
68510;BMP180;55512;50.102;19.958;2023-02-28T05:41:07;99876.20;;;-2.00
68510;BMP180;55512;50.102;19.958;2023-02-28T05:43:32;99872.00;;;-2.00
68510;BMP180;55512;50.102;19.958;2023-02-28T05:45:58;99873.80;;;-2.00
68510;BMP180;55512;50.102;19.958;2023-02-28T05:48:23;99874.80;;;-2.02
68510;BMP180;55512;50.102;19.958;2023-02-28T05:50:49;99879.80;;;-2.00
68510;BMP180;55512;50.102;19.958;2023-02-28T05:53:14;99884.00;;;-2.00
68510;BMP180;55512;50.102;19.958;2023-02-28T05:55:40;99889.00;;;-2.00
68510;BMP180;55512;50.102;19.958;2023-02-28T05:58:06;99898.00;;;-2.00
68510;BMP180;55512;50.102;19.958;2023-02-28T06:00:31;99897.80;;;-2.00
68510;BMP180;55512;50.102;19.958;2023-02-28T06:02:57;99900.20;;;-1.98
68510;BMP180;55512;50.102;19.958;2023-02-28T06:05:25;99902.60;;;-1.90
68510;BMP180;55512;50.102;19.958;2023-02-28T06:07:50;99904.80;;;-1.90
68510;BMP180;55512;50.102;19.958;2023-02-28T06:10:16;99905.80;;;-1.90
68510;BMP180;55512;50.102;19.958;2023-02-28T06:12:42;99906.00;;;-1.90
68510;BMP180;55512;50.102;19.958;2023-02-28T06:15:14;99902.80;;;-1.86
68510;BMP180;55512;50.102;19.958;2023-02-28T06:17:42;99901.40;;;-1.88
68510;BMP180;55512;50.102;19.958;2023-02-28T06:20:10;99907.40;;;-1.80
68510;BMP180;55512;50.102;19.958;2023-02-28T06:22:39;99902.20;;;-1.80
68510;BMP180;55512;50.102;19.958;2023-02-28T06:25:06;99906.20;;;-1.80
68510;BMP180;55512;50.102;19.958;2023-02-28T06:27:33;99909.00;;;-1.80
68510;BMP180;55512;50.102;19.958;2023-02-28T06:29:59;99917.60;;;-1.76
68510;BMP180;55512;50.102;19.958;2023-02-28T06:32:25;99915.80;;;-1.70
68510;BMP180;55512;50.102;19.958;2023-02-28T06:34:51;99914.60;;;-1.70
68510;BMP180;55512;50.102;19.958;2023-02-28T06:37:17;99909.20;;;-1.70
68510;BMP180;55512;50.102;19.958;2023-02-28T06:39:43;99917.80;;;-1.60
68510;BMP180;55512;50.102;19.958;2023-02-28T06:42:08;99920.20;;;-1.60
68510;BMP180;55512;50.102;19.958;2023-02-28T06:44:34;99918.80;;;-1.60
68510;BMP180;55512;50.102;19.958;2023-02-28T06:47:02;99922.40;;;-1.60
68510;BMP180;55512;50.102;19.958;2023-02-28T06:49:32;99921.20;;;-1.60
68510;BMP180;55512;50.102;19.958;2023-02-28T06:51:58;99919.00;;;-1.50
68510;BMP180;55512;50.102;19.958;2023-02-28T06:54:23;99927.60;;;-1.50
68510;BMP180;55512;50.102;19.958;2023-02-28T06:56:49;99932.60;;;-1.50
68510;BMP180;55512;50.102;19.958;2023-02-28T06:59:16;99936.20;;;-1.50
68510;BMP180;55512;50.102;19.958;2023-02-28T07:01:42;99937.20;;;-1.44
68510;BMP180;55512;50.102;19.958;2023-02-28T07:04:08;99936.80;;;-1.40
68510;BMP180;55512;50.102;19.958;2023-02-28T07:06:33;99934.60;;;-1.40
68510;BMP180;55512;50.102;19.958;2023-02-28T07:08:59;99937.80;;;-1.40
68510;BMP180;55512;50.102;19.958;2023-02-28T07:11:27;99938.40;;;-1.34
68510;BMP180;55512;50.102;19.958;2023-02-28T07:13:55;99941.80;;;-1.30
68510;BMP180;55512;50.102;19.958;2023-02-28T07:16:22;99949.80;;;-1.30
68510;BMP180;55512;50.102;19.958;2023-02-28T07:18:48;99943.20;;;-1.28
68510;BMP180;55512;50.102;19.958;2023-02-28T07:21:15;99948.40;;;-1.20
68510;BMP180;55512;50.102;19.958;2023-02-28T07:23:41;99951.80;;;-1.20
68510;BMP180;55512;50.102;19.958;2023-02-28T07:26:12;99949.20;;;-1.20
68510;BMP180;55512;50.102;19.958;2023-02-28T07:28:41;99947.60;;;-1.10
68510;BMP180;55512;50.102;19.958;2023-02-28T07:31:09;99949.80;;;-1.10
68510;BMP180;55512;50.102;19.958;2023-02-28T07:33:35;99954.40;;;-1.00
68510;BMP180;55512;50.102;19.958;2023-02-28T07:36:08;99954.00;;;-0.96
68510;BMP180;55512;50.102;19.958;2023-02-28T07:38:37;99960.40;;;-0.90
68510;BMP180;55512;50.102;19.958;2023-02-28T07:41:03;99964.00;;;-0.84
68510;BMP180;55512;50.102;19.958;2023-02-28T07:43:34;99965.80;;;-0.80
68510;BMP180;55512;50.102;19.958;2023-02-28T07:46:18;99964.20;;;-0.72
68510;BMP180;55512;50.102;19.958;2023-02-28T07:48:46;99961.40;;;-0.70
68510;BMP180;55512;50.102;19.958;2023-02-28T07:51:12;99961.20;;;-0.60
68510;BMP180;55512;50.102;19.958;2023-02-28T07:53:37;99966.80;;;-0.56
68510;BMP180;55512;50.102;19.958;2023-02-28T07:56:04;99964.40;;;-0.50
68510;BMP180;55512;50.102;19.958;2023-02-28T07:58:30;99955.00;;;-0.40
68510;BMP180;55512;50.102;19.958;2023-02-28T08:00:56;99961.20;;;-0.30
68510;BMP180;55512;50.102;19.958;2023-02-28T08:03:23;99959.60;;;-0.20
68510;BMP180;55512;50.102;19.958;2023-02-28T08:05:50;99965.20;;;-0.10
68510;BMP180;55512;50.102;19.958;2023-02-28T08:08:16;99963.20;;;-0.02
68510;BMP180;55512;50.102;19.958;2023-02-28T08:10:43;99966.80;;;0.08
68510;BMP180;55512;50.102;19.958;2023-02-28T08:13:08;99967.00;;;0.12
68510;BMP180;55512;50.102;19.958;2023-02-28T08:15:35;99969.00;;;0.20
68510;BMP180;55512;50.102;19.958;2023-02-28T08:18:01;99968.40;;;0.30
68510;BMP180;55512;50.102;19.958;2023-02-28T08:20:27;99969.20;;;0.40
68510;BMP180;55512;50.102;19.958;2023-02-28T08:22:52;99966.40;;;0.50
68510;BMP180;55512;50.102;19.958;2023-02-28T08:25:18;99963.20;;;0.60
68510;BMP180;55512;50.102;19.958;2023-02-28T08:27:44;99966.80;;;0.70
68510;BMP180;55512;50.102;19.958;2023-02-28T08:30:14;99969.60;;;0.80
68510;BMP180;55512;50.102;19.958;2023-02-28T08:32:40;99972.00;;;0.90
68510;BMP180;55512;50.102;19.958;2023-02-28T08:35:06;99975.60;;;0.94
68510;BMP180;55512;50.102;19.958;2023-02-28T08:37:32;99973.00;;;1.00
68510;BMP180;55512;50.102;19.958;2023-02-28T08:39:57;99975.20;;;1.14
68510;BMP180;55512;50.102;19.958;2023-02-28T08:42:23;99974.40;;;1.20
68510;BMP180;55512;50.102;19.958;2023-02-28T08:44:49;99977.80;;;1.30
68510;BMP180;55512;50.102;19.958;2023-02-28T08:47:15;99972.20;;;1.40
68510;BMP180;55512;50.102;19.958;2023-02-28T08:49:40;99975.00;;;1.40
68510;BMP180;55512;50.102;19.958;2023-02-28T08:52:06;99974.00;;;1.50
68510;BMP180;55512;50.102;19.958;2023-02-28T08:54:32;99976.40;;;1.60
68510;BMP180;55512;50.102;19.958;2023-02-28T08:56:58;99971.80;;;1.60
68510;BMP180;55512;50.102;19.958;2023-02-28T08:59:23;99980.00;;;1.70
68510;BMP180;55512;50.102;19.958;2023-02-28T09:01:49;99970.80;;;1.80
68510;BMP180;55512;50.102;19.958;2023-02-28T09:04:14;99974.80;;;1.84
68510;BMP180;55512;50.102;19.958;2023-02-28T09:06:40;99973.00;;;1.90
68510;BMP180;55512;50.102;19.958;2023-02-28T09:09:07;99976.00;;;2.00
68510;BMP180;55512;50.102;19.958;2023-02-28T09:11:34;99972.60;;;2.00
68510;BMP180;55512;50.102;19.958;2023-02-28T09:14:01;99973.00;;;2.10
68510;BMP180;55512;50.102;19.958;2023-02-28T09:16:33;99973.00;;;2.22
68510;BMP180;55512;50.102;19.958;2023-02-28T09:18:59;99974.60;;;2.34
68510;BMP180;55512;50.102;19.958;2023-02-28T09:21:25;99980.60;;;2.40
68510;BMP180;55512;50.102;19.958;2023-02-28T09:23:50;99978.80;;;2.50
68510;BMP180;55512;50.102;19.958;2023-02-28T09:26:27;99979.20;;;2.60
68510;BMP180;55512;50.102;19.958;2023-02-28T09:28:54;99974.40;;;2.70
68510;BMP180;55512;50.102;19.958;2023-02-28T09:31:27;99976.20;;;2.80
68510;BMP180;55512;50.102;19.958;2023-02-28T09:33:56;99974.60;;;2.80
68510;BMP180;55512;50.102;19.958;2023-02-28T09:36:24;99978.20;;;2.90
68510;BMP180;55512;50.102;19.958;2023-02-28T09:38:50;99980.00;;;2.90
68510;BMP180;55512;50.102;19.958;2023-02-28T09:41:37;99976.60;;;2.90
68510;BMP180;55512;50.102;19.958;2023-02-28T09:44:12;99976.00;;;2.90
68510;BMP180;55512;50.102;19.958;2023-02-28T09:46:45;99973.20;;;2.96
68510;BMP180;55512;50.102;19.958;2023-02-28T09:49:19;99975.60;;;2.90
68510;BMP180;55512;50.102;19.958;2023-02-28T09:54:20;99980.80;;;2.90
68510;BMP180;55512;50.102;19.958;2023-02-28T09:56:59;99980.80;;;2.82
68510;BMP180;55512;50.102;19.958;2023-02-28T09:59:59;99985.60;;;2.80
68510;BMP180;55512;50.102;19.958;2023-02-28T10:05:47;99991.00;;;2.80
68510;BMP180;55512;50.102;19.958;2023-02-28T10:08:21;99987.40;;;2.80
68510;BMP180;55512;50.102;19.958;2023-02-28T10:10:55;99985.00;;;2.80
68510;BMP180;55512;50.102;19.958;2023-02-28T10:14:00;99988.00;;;2.76
68510;BMP180;55512;50.102;19.958;2023-02-28T10:16:48;99980.60;;;2.70
68510;BMP180;55512;50.102;19.958;2023-02-28T10:19:33;99981.80;;;2.70
68510;BMP180;55512;50.102;19.958;2023-02-28T10:22:06;99973.80;;;2.70
68510;BMP180;55512;50.102;19.958;2023-02-28T10:24:44;99975.20;;;2.70
68510;BMP180;55512;50.102;19.958;2023-02-28T10:27:25;99977.80;;;2.68
68510;BMP180;55512;50.102;19.958;2023-02-28T10:29:57;99969.00;;;2.62
68510;BMP180;55512;50.102;19.958;2023-02-28T10:32:31;99973.40;;;2.50
68510;BMP180;55512;50.102;19.958;2023-02-28T10:35:11;99967.60;;;2.50
68510;BMP180;55512;50.102;19.958;2023-02-28T10:37:48;99964.00;;;2.50
68510;BMP180;55512;50.102;19.958;2023-02-28T10:43:18;99957.80;;;2.60
68510;BMP180;55512;50.102;19.958;2023-02-28T10:46:02;99951.80;;;2.60
68510;BMP180;55512;50.102;19.958;2023-02-28T10:50:59;99948.40;;;2.66
68510;BMP180;55512;50.102;19.958;2023-02-28T10:53:30;99945.40;;;2.70
68510;BMP180;55512;50.102;19.958;2023-02-28T10:56:12;99944.20;;;2.70
68510;BMP180;55512;50.102;19.958;2023-02-28T11:01:36;99947.00;;;2.80
68510;BMP180;55512;50.102;19.958;2023-02-28T11:06:56;99943.20;;;2.80
68510;BMP180;55512;50.102;19.958;2023-02-28T11:09:29;99938.80;;;2.80
68510;BMP180;55512;50.102;19.958;2023-02-28T11:11:56;99936.80;;;2.76
68510;BMP180;55512;50.102;19.958;2023-02-28T11:14:27;99933.60;;;2.70
68510;BMP180;55512;50.102;19.958;2023-02-28T11:16:59;99931.80;;;2.70
68510;BMP180;55512;50.102;19.958;2023-02-28T11:19:39;99926.80;;;2.64
68510;BMP180;55512;50.102;19.958;2023-02-28T11:22:06;99918.60;;;2.60
68510;BMP180;55512;50.102;19.958;2023-02-28T11:24:43;99920.20;;;2.68
68510;BMP180;55512;50.102;19.958;2023-02-28T11:30:00;99908.60;;;2.74
68510;BMP180;55512;50.102;19.958;2023-02-28T11:32:30;99903.40;;;2.80
68510;BMP180;55512;50.102;19.958;2023-02-28T11:35:17;99909.80;;;2.80
68510;BMP180;55512;50.102;19.958;2023-02-28T11:37:45;99905.60;;;2.86
68510;BMP180;55512;50.102;19.958;2023-02-28T11:40:33;99904.00;;;2.90
68510;BMP180;55512;50.102;19.958;2023-02-28T11:43:22;99904.40;;;2.90
68510;BMP180;55512;50.102;19.958;2023-02-28T11:46:52;99903.40;;;2.90
68510;BMP180;55512;50.102;19.958;2023-02-28T11:52:02;99897.80;;;3.00
68510;BMP180;55512;50.102;19.958;2023-02-28T12:06:40;99894.60;;;3.40
68510;BMP180;55512;50.102;19.958;2023-02-28T12:09:42;99895.80;;;3.50
68510;BMP180;55512;50.102;19.958;2023-02-28T12:21:14;99889.40;;;3.40
68510;BMP180;55512;50.102;19.958;2023-02-28T12:26:53;99894.20;;;3.40
68510;BMP180;55512;50.102;19.958;2023-02-28T12:29:37;99897.00;;;3.54
68510;BMP180;55512;50.102;19.958;2023-02-28T12:32:38;99896.60;;;3.60
68510;BMP180;55512;50.102;19.958;2023-02-28T12:35:13;99903.80;;;3.70
68510;BMP180;55512;50.102;19.958;2023-02-28T12:38:21;99900.60;;;3.88
68510;BMP180;55512;50.102;19.958;2023-02-28T12:41:00;99904.80;;;4.02
68510;BMP180;55512;50.102;19.958;2023-02-28T12:43:33;99905.80;;;4.10
68510;BMP180;55512;50.102;19.958;2023-02-28T12:51:40;99905.80;;;4.50
68510;BMP180;55512;50.102;19.958;2023-02-28T12:54:30;99902.60;;;4.60
68510;BMP180;55512;50.102;19.958;2023-02-28T12:57:13;99897.80;;;4.60
68510;BMP180;55512;50.102;19.958;2023-02-28T13:00:14;99897.00;;;4.60
68510;BMP180;55512;50.102;19.958;2023-02-28T13:10:45;99891.20;;;5.00
68510;BMP180;55512;50.102;19.958;2023-02-28T13:13:26;99888.00;;;5.20
68510;BMP180;55512;50.102;19.958;2023-02-28T13:16:06;99890.00;;;5.30
68510;BMP180;55512;50.102;19.958;2023-02-28T13:21:21;99894.40;;;5.60
68510;BMP180;55512;50.102;19.958;2023-02-28T13:40:27;99877.40;;;5.72
68510;BMP180;55512;50.102;19.958;2023-02-28T13:42:52;99877.20;;;5.90
68510;BMP180;55512;50.102;19.958;2023-02-28T13:45:29;99876.20;;;5.94
68510;BMP180;55512;50.102;19.958;2023-02-28T13:50:49;99873.20;;;5.80
68510;BMP180;55512;50.102;19.958;2023-02-28T13:56:40;99874.60;;;5.70
68510;BMP180;55512;50.102;19.958;2023-02-28T13:59:34;99864.20;;;5.70
68510;BMP180;55512;50.102;19.958;2023-02-28T14:05:15;99858.60;;;5.50
68510;BMP180;55512;50.102;19.958;2023-02-28T14:07:58;99856.80;;;5.70
68510;BMP180;55512;50.102;19.958;2023-02-28T14:10:36;99857.60;;;5.80
68510;BMP180;55512;50.102;19.958;2023-02-28T14:16:01;99847.80;;;6.28
68510;BMP180;55512;50.102;19.958;2023-02-28T14:18:34;99847.80;;;6.26
68510;BMP180;55512;50.102;19.958;2023-02-28T14:21:14;99851.20;;;6.72
68510;BMP180;55512;50.102;19.958;2023-02-28T14:24:09;99851.20;;;8.60
68510;BMP180;55512;50.102;19.958;2023-02-28T14:38:35;99895.20;;;20.38
68510;BMP180;55512;50.102;19.958;2023-02-28T14:41:12;99897.40;;;21.58
68510;BMP180;55512;50.102;19.958;2023-02-28T14:43:50;99905.20;;;22.46
68510;BMP180;55512;50.102;19.958;2023-02-28T14:46:17;99906.80;;;23.68
68510;BMP180;55512;50.102;19.958;2023-02-28T14:48:49;99910.80;;;24.46
68510;BMP180;55512;50.102;19.958;2023-02-28T14:51:21;99909.00;;;25.10
68510;BMP180;55512;50.102;19.958;2023-02-28T14:53:58;99918.80;;;25.80
68510;BMP180;55512;50.102;19.958;2023-02-28T14:56:34;99919.00;;;26.00
68510;BMP180;55512;50.102;19.958;2023-02-28T14:59:00;99920.00;;;26.30
68510;BMP180;55512;50.102;19.958;2023-02-28T15:01:26;99921.60;;;26.54
68510;BMP180;55512;50.102;19.958;2023-02-28T15:04:02;99918.00;;;26.80
68510;BMP180;55512;50.102;19.958;2023-02-28T15:06:28;99923.20;;;26.90
68510;BMP180;55512;50.102;19.958;2023-02-28T15:09:14;99926.00;;;27.00
68510;BMP180;55512;50.102;19.958;2023-02-28T15:11:45;99920.40;;;26.64
68510;BMP180;55512;50.102;19.958;2023-02-28T15:14:20;99921.80;;;26.50
68510;BMP180;55512;50.102;19.958;2023-02-28T15:17:19;99925.20;;;26.60
68510;BMP180;55512;50.102;19.958;2023-02-28T15:19:45;99924.80;;;26.70
68510;BMP180;55512;50.102;19.958;2023-02-28T15:22:20;99915.60;;;26.30
68510;BMP180;55512;50.102;19.958;2023-02-28T15:24:51;99916.60;;;25.46
68510;BMP180;55512;50.102;19.958;2023-02-28T15:27:29;99919.60;;;25.30
68510;BMP180;55512;50.102;19.958;2023-02-28T15:30:06;99915.20;;;25.12
68510;BMP180;55512;50.102;19.958;2023-02-28T15:32:36;99920.20;;;24.90
68510;BMP180;55512;50.102;19.958;2023-02-28T15:35:29;99923.00;;;24.60
68510;BMP180;55512;50.102;19.958;2023-02-28T15:38:23;99925.40;;;24.14
68510;BMP180;55512;50.102;19.958;2023-02-28T15:40:56;99920.60;;;23.32
68510;BMP180;55512;50.102;19.958;2023-02-28T15:46:10;99918.20;;;21.20
68510;BMP180;55512;50.102;19.958;2023-02-28T15:48:52;99913.80;;;20.12
68510;BMP180;55512;50.102;19.958;2023-02-28T15:51:24;99911.60;;;19.40
68510;BMP180;55512;50.102;19.958;2023-02-28T15:53:57;99911.80;;;18.80
68510;BMP180;55512;50.102;19.958;2023-02-28T15:56:31;99908.80;;;17.82
68510;BMP180;55512;50.102;19.958;2023-02-28T15:59:05;99903.40;;;16.52
68510;BMP180;55512;50.102;19.958;2023-02-28T16:01:38;99904.40;;;15.28
68510;BMP180;55512;50.102;19.958;2023-02-28T16:04:19;99898.40;;;14.14
68510;BMP180;55512;50.102;19.958;2023-02-28T16:06:59;99893.80;;;13.14
68510;BMP180;55512;50.102;19.958;2023-02-28T16:09:26;99887.80;;;12.22
68510;BMP180;55512;50.102;19.958;2023-02-28T16:11:55;99885.00;;;11.44
68510;BMP180;55512;50.102;19.958;2023-02-28T16:14:25;99888.00;;;10.76
68510;BMP180;55512;50.102;19.958;2023-02-28T16:17:07;99886.20;;;10.14
68510;BMP180;55512;50.102;19.958;2023-02-28T16:19:39;99883.80;;;9.44
68510;BMP180;55512;50.102;19.958;2023-02-28T16:22:04;99881.40;;;8.94
68510;BMP180;55512;50.102;19.958;2023-02-28T16:24:29;99877.00;;;8.42
68510;BMP180;55512;50.102;19.958;2023-02-28T16:26:56;99878.00;;;8.00
68510;BMP180;55512;50.102;19.958;2023-02-28T16:29:29;99875.40;;;7.60
68510;BMP180;55512;50.102;19.958;2023-02-28T16:31:55;99874.20;;;7.20
68510;BMP180;55512;50.102;19.958;2023-02-28T16:34:21;99879.20;;;6.80
68510;BMP180;55512;50.102;19.958;2023-02-28T16:36:48;99879.00;;;6.46
68510;BMP180;55512;50.102;19.958;2023-02-28T16:39:14;99873.20;;;6.16
68510;BMP180;55512;50.102;19.958;2023-02-28T16:41:43;99877.20;;;5.90
68510;BMP180;55512;50.102;19.958;2023-02-28T16:44:28;99877.20;;;5.60
68510;BMP180;55512;50.102;19.958;2023-02-28T16:46:54;99878.80;;;5.38
68510;BMP180;55512;50.102;19.958;2023-02-28T16:49:20;99875.20;;;5.14
68510;BMP180;55512;50.102;19.958;2023-02-28T16:51:46;99876.80;;;4.90
68510;BMP180;55512;50.102;19.958;2023-02-28T16:54:12;99879.80;;;4.70
68510;BMP180;55512;50.102;19.958;2023-02-28T16:56:43;99880.60;;;4.50
68510;BMP180;55512;50.102;19.958;2023-02-28T16:59:11;99878.40;;;4.30